createdAt,value
2018-01-27T00:00:31.386Z,42.90
2018-01-27T00:02:59.715Z,44.93
2018-01-27T00:05:28.024Z,40.47
2018-01-27T00:07:56.382Z,49.67
2018-01-27T00:10:24.739Z,42.50
2018-01-27T00:12:53.127Z,45.90
2018-01-27T00:15:21.440Z,36.60
2018-01-27T00:17:50.784Z,41.83
2018-01-27T00:20:19.175Z,45.40
2018-01-27T00:22:52.424Z,40.30
2018-01-27T00:25:20.745Z,36.57
2018-01-27T00:27:49.087Z,38.53
2018-01-27T00:30:17.438Z,43.33
2018-01-27T00:32:45.744Z,40.33
2018-01-27T00:35:14.086Z,33.90
2018-01-27T00:37:42.430Z,50.03
2018-01-27T00:40:10.811Z,41.30
2018-01-27T00:42:39.142Z,37.13
2018-01-27T00:45:07.468Z,47.10
2018-01-27T00:47:35.796Z,38.97
2018-01-27T00:50:04.366Z,34.50
2018-01-27T00:52:32.724Z,31.40
2018-01-27T00:55:01.058Z,47.53
2018-01-27T00:57:29.383Z,39.67
2018-01-27T00:59:58.660Z,37.00
2018-01-27T01:02:31.263Z,38.90
2018-01-27T01:04:59.605Z,36.10
2018-01-27T01:07:27.924Z,44.57
2018-01-27T01:09:56.506Z,32.97
2018-01-27T01:12:24.846Z,35.53
2018-01-27T01:14:53.154Z,35.20
2018-01-27T01:17:21.512Z,37.37
2018-01-27T01:19:49.836Z,35.83
2018-01-27T01:22:18.166Z,34.40
2018-01-27T01:24:46.491Z,36.70
2018-01-27T01:27:14.809Z,37.03
2018-01-27T01:29:43.159Z,38.73
2018-01-27T01:32:11.543Z,41.00
2018-01-27T01:34:39.868Z,39.67
2018-01-27T01:37:08.185Z,42.53
2018-01-27T01:39:37.521Z,36.43
2018-01-27T01:42:06.015Z,35.57
2018-01-27T01:44:34.325Z,36.60
2018-01-27T01:47:02.661Z,33.50
2018-01-27T01:49:30.982Z,42.50
2018-01-27T01:51:59.326Z,36.33
2018-01-27T01:54:27.659Z,35.87
2018-01-27T01:56:55.979Z,41.37
2018-01-27T01:59:24.311Z,50.00
2018-01-27T02:01:52.638Z,41.50
2018-01-27T02:04:21.016Z,42.80
2018-01-27T02:06:50.092Z,42.63
2018-01-27T02:09:18.407Z,42.10
2018-01-27T02:11:46.743Z,46.47
2018-01-27T02:14:15.047Z,40.47
2018-01-27T02:16:43.371Z,43.70
2018-01-27T02:19:11.686Z,42.47
2018-01-27T02:21:39.999Z,42.47
2018-01-27T02:24:08.339Z,56.57
2018-01-27T02:26:36.656Z,43.13
2018-01-27T02:29:04.990Z,41.20
2018-01-27T02:31:33.287Z,40.07
2018-01-27T02:34:01.626Z,40.53
2018-01-27T02:36:29.971Z,41.47
2018-01-27T02:38:58.364Z,43.83
2018-01-27T02:41:27.318Z,47.93
2018-01-27T02:43:55.611Z,49.53
2018-01-27T02:46:23.936Z,54.67
2018-01-27T02:48:52.321Z,56.47
2018-01-27T02:51:20.628Z,61.30
2018-01-27T02:53:49.036Z,65.67
2018-01-27T02:56:17.352Z,61.47
2018-01-27T02:58:45.671Z,64.53
2018-01-27T03:01:14.011Z,69.53
2018-01-27T03:03:42.329Z,65.43
2018-01-27T03:06:10.656Z,70.67
2018-01-27T03:08:38.995Z,56.50
2018-01-27T03:11:07.380Z,64.43
2018-01-27T03:13:36.555Z,58.80
2018-01-27T03:16:04.891Z,64.67
2018-01-27T03:18:33.223Z,64.87
2018-01-27T03:21:01.544Z,72.20
2018-01-27T03:23:29.865Z,70.80
2018-01-27T03:25:58.193Z,74.47
2018-01-27T03:28:26.521Z,66.33
2018-01-27T03:30:54.838Z,71.83
2018-01-27T03:33:23.161Z,73.80
2018-01-27T03:35:51.493Z,76.37
2018-01-27T03:38:19.822Z,77.83
2018-01-27T03:40:48.119Z,64.50
2018-01-27T03:43:16.470Z,71.50
2018-01-27T03:45:44.814Z,64.00
2018-01-27T03:48:13.118Z,71.87
2018-01-27T03:50:41.456Z,65.67
2018-01-27T03:53:09.783Z,60.67
2018-01-27T03:55:38.108Z,66.63
2018-01-27T03:58:06.427Z,71.80
2018-01-27T04:00:34.801Z,53.77
2018-01-27T04:03:03.100Z,46.37
2018-01-27T04:05:31.483Z,45.53
2018-01-27T04:07:59.816Z,46.80
2018-01-27T04:10:28.134Z,33.77
2018-01-27T04:12:56.450Z,37.60
2018-01-27T04:15:24.774Z,40.00
2018-01-27T04:17:53.129Z,37.37
2018-01-27T04:20:21.456Z,41.43
2018-01-27T04:22:49.796Z,38.50
2018-01-27T04:25:18.112Z,40.03
2018-01-27T04:27:46.440Z,40.53
2018-01-27T04:30:14.749Z,38.87
2018-01-27T04:32:43.080Z,43.20
2018-01-27T04:35:11.417Z,40.20
2018-01-27T04:37:39.731Z,44.07
2018-01-27T04:40:08.061Z,39.97
2018-01-27T04:42:36.442Z,48.20
2018-01-27T04:45:04.770Z,50.73
2018-01-27T04:47:34.108Z,42.97
2018-01-27T04:50:02.430Z,46.17
2018-01-27T04:52:30.828Z,46.23
2018-01-27T04:54:59.123Z,52.27
2018-01-27T04:57:27.477Z,48.37
2018-01-27T04:59:55.784Z,43.67
2018-01-27T05:02:24.121Z,62.33
2018-01-27T05:04:52.646Z,56.83
2018-01-27T05:07:20.975Z,58.03
2018-01-27T05:09:49.379Z,70.90
2018-01-27T05:12:17.703Z,54.70
2018-01-27T05:14:46.049Z,58.57
2018-01-27T05:17:14.343Z,54.60
2018-01-27T05:19:42.678Z,58.57
2018-01-27T05:22:10.979Z,64.37
2018-01-27T05:24:39.310Z,61.90
2018-01-27T05:27:07.619Z,66.57
2018-01-27T05:29:35.969Z,74.00
2018-01-27T05:32:04.286Z,82.93
2018-01-27T05:34:32.609Z,72.13
2018-01-27T05:37:00.928Z,65.10
2018-01-27T05:39:29.236Z,63.90
2018-01-27T05:41:57.560Z,59.03
2018-01-27T05:44:25.890Z,67.53
2018-01-27T05:46:54.296Z,82.97
2018-01-27T05:49:22.632Z,48.53
2018-01-27T05:51:50.964Z,47.10
2018-01-27T05:54:19.296Z,55.20
2018-01-27T05:56:47.663Z,43.30
2018-01-27T05:59:15.980Z,49.40
2018-01-27T06:01:45.018Z,44.43
2018-01-27T06:04:13.342Z,41.13
2018-01-27T06:06:41.668Z,32.40
2018-01-27T06:09:09.982Z,41.73
2018-01-27T06:11:38.430Z,33.10
2018-01-27T06:14:06.736Z,34.43
2018-01-27T06:16:35.052Z,39.37
2018-01-27T06:19:03.376Z,53.73
2018-01-27T06:21:32.352Z,40.70
2018-01-27T06:24:00.706Z,44.80
2018-01-27T06:26:29.032Z,43.37
2018-01-27T06:28:57.358Z,52.47
2018-01-27T06:31:25.676Z,49.20
2018-01-27T06:33:54.068Z,53.40
2018-01-27T06:36:22.348Z,48.43
2018-01-27T06:38:50.703Z,58.50
2018-01-27T06:41:19.021Z,50.40
2018-01-27T06:43:47.350Z,56.00
2018-01-27T06:46:21.578Z,63.67
2018-01-27T06:48:49.911Z,53.77
2018-01-27T06:51:18.232Z,59.07
2018-01-27T06:53:46.567Z,59.77
2018-01-27T06:56:14.979Z,68.53
2018-01-27T06:58:43.274Z,64.20
2018-01-27T07:01:11.603Z,52.13
2018-01-27T07:03:39.937Z,55.30
2018-01-27T07:06:08.277Z,52.47
2018-01-27T07:08:36.652Z,58.30
2018-01-27T07:11:04.983Z,62.83
2018-01-27T07:13:33.316Z,61.37
2018-01-27T07:16:01.636Z,65.10
2018-01-27T07:18:29.984Z,88.80
2018-01-27T07:20:58.299Z,76.77
2018-01-27T07:23:26.636Z,81.73
2018-01-27T07:25:54.989Z,81.23
2018-01-27T07:28:23.328Z,87.13
2018-01-27T07:30:51.680Z,110.80
2018-01-27T07:33:20.009Z,100.83
2018-01-27T07:35:48.339Z,106.80
2018-01-27T07:38:16.668Z,100.93
2018-01-27T07:40:44.995Z,122.10
2018-01-27T07:43:13.312Z,139.67
2018-01-27T07:45:41.649Z,106.60
2018-01-27T07:48:09.998Z,111.73
2018-01-27T07:50:38.693Z,112.07
2018-01-27T07:53:07.743Z,117.70
2018-01-27T07:55:36.075Z,126.27
2018-01-27T07:58:04.648Z,116.73
2018-01-27T08:00:32.987Z,114.07
2018-01-27T08:03:01.329Z,112.00
2018-01-27T08:05:29.729Z,131.10
2018-01-27T08:07:58.040Z,114.47
2018-01-27T08:10:26.388Z,121.30
2018-01-27T08:12:54.719Z,116.13
2018-01-27T08:15:23.300Z,109.37
2018-01-27T08:17:51.684Z,127.40
2018-01-27T08:20:20.033Z,121.87
2018-01-27T08:22:48.404Z,133.40
2018-01-27T08:25:16.901Z,125.27
2018-01-27T08:27:45.227Z,125.63
2018-01-27T08:30:13.573Z,109.67
2018-01-27T08:32:41.900Z,99.30
2018-01-27T08:35:10.216Z,114.13
2018-01-27T08:37:38.556Z,127.30
2018-01-27T08:40:06.999Z,121.03
2018-01-27T08:42:35.312Z,121.33
2018-01-27T08:45:04.460Z,125.20
2018-01-27T08:47:32.814Z,117.03
2018-01-27T08:50:01.158Z,104.40
2018-01-27T08:52:29.490Z,112.47
2018-01-27T08:54:57.840Z,107.53
2018-01-27T08:57:26.187Z,118.60
2018-01-27T08:59:54.531Z,116.33
2018-01-27T09:02:22.858Z,112.40
2018-01-27T09:04:51.204Z,133.47
2018-01-27T09:07:19.563Z,114.33
2018-01-27T09:09:47.891Z,116.13
2018-01-27T09:12:16.223Z,113.67
2018-01-27T09:14:44.587Z,112.40
2018-01-27T09:17:12.944Z,122.43
2018-01-27T09:19:41.282Z,139.00
2018-01-27T09:22:09.640Z,139.10
2018-01-27T09:24:38.443Z,130.07
2018-01-27T09:27:06.827Z,118.57
2018-01-27T09:29:35.717Z,142.77
2018-01-27T09:32:04.053Z,123.40
2018-01-27T09:34:32.409Z,134.70
2018-01-27T09:37:00.760Z,135.23
2018-01-27T09:39:29.182Z,103.87
2018-01-27T09:41:57.536Z,108.43
2018-01-27T09:44:26.748Z,122.23
2018-01-27T09:46:55.121Z,133.40
2018-01-27T09:49:23.438Z,116.70
2018-01-27T09:51:51.792Z,138.30
2018-01-27T09:54:21.147Z,106.90
2018-01-27T09:56:49.836Z,112.27
2018-01-27T09:59:18.302Z,111.07
2018-01-27T10:01:46.730Z,124.17
2018-01-27T10:04:15.060Z,116.07
2018-01-27T10:06:43.406Z,136.77
2018-01-27T10:09:11.724Z,111.40
2018-01-27T10:11:40.074Z,119.07
2018-01-27T10:14:08.398Z,116.97
2018-01-27T10:16:36.867Z,109.47
2018-01-27T10:19:11.097Z,99.37
2018-01-27T10:21:39.464Z,123.70
2018-01-27T10:24:07.805Z,122.07
2018-01-27T10:26:36.148Z,101.53
2018-01-27T10:29:04.487Z,105.10
2018-01-27T10:31:50.424Z,102.57
2018-01-27T10:34:19.292Z,93.90
2018-01-27T10:36:47.708Z,94.33
2018-01-27T10:39:16.035Z,101.20
2018-01-27T10:41:44.373Z,111.10
2018-01-27T10:44:13.349Z,108.77
2018-01-27T10:46:41.689Z,109.90
2018-01-27T10:49:10.020Z,103.37
2018-01-27T10:51:38.348Z,93.77
2018-01-27T10:54:06.672Z,93.67
2018-01-27T10:56:35.110Z,86.23
2018-01-27T10:59:03.451Z,97.00
2018-01-27T11:01:31.779Z,96.60
2018-01-27T11:04:00.100Z,102.30
2018-01-27T11:06:32.204Z,94.67
2018-01-27T11:09:00.546Z,102.83
2018-01-27T11:11:28.889Z,117.43
2018-01-27T11:13:57.228Z,101.10
2018-01-27T11:16:28.053Z,106.83
2018-01-27T11:18:57.382Z,102.37
2018-01-27T11:21:25.668Z,107.13
2018-01-27T11:23:54.004Z,95.80
2018-01-27T11:26:22.377Z,103.17
2018-01-27T11:28:50.737Z,104.13
2018-01-27T11:31:19.088Z,105.87
2018-01-27T11:33:48.214Z,97.00
2018-01-27T11:36:16.551Z,104.33
2018-01-27T11:38:46.922Z,112.63
2018-01-27T11:41:15.260Z,104.43
2018-01-27T11:46:28.179Z,100.43
2018-01-27T11:48:56.561Z,106.70
2018-01-27T11:51:29.316Z,96.10
2018-01-27T11:53:59.183Z,85.90
2018-01-27T11:56:27.687Z,87.20
2018-01-27T11:58:56.120Z,89.20
2018-01-27T12:01:24.478Z,107.07
2018-01-27T12:03:52.820Z,88.73
2018-01-27T12:06:21.249Z,81.93
2018-01-27T12:08:49.640Z,93.10
2018-01-27T12:11:18.036Z,86.73
2018-01-27T12:13:46.651Z,104.37
2018-01-27T12:16:15.305Z,91.80
2018-01-27T12:18:43.893Z,87.07
2018-01-27T12:21:12.805Z,86.70
2018-01-27T12:23:51.316Z,93.77
2018-01-27T12:26:19.699Z,89.23
2018-01-27T12:28:48.094Z,82.73
2018-01-27T12:31:16.415Z,79.53
2018-01-27T12:33:44.752Z,70.77
2018-01-27T12:36:13.077Z,80.00
2018-01-27T12:38:41.708Z,78.00
2018-01-27T12:41:10.109Z,88.67
2018-01-27T12:43:38.458Z,68.07
2018-01-27T12:46:06.767Z,69.80
2018-01-27T12:51:08.288Z,61.33
2018-01-27T12:53:36.613Z,70.53
2018-01-27T12:56:04.998Z,71.80
2018-01-27T12:58:33.709Z,72.37
2018-01-27T13:01:02.036Z,64.87
2018-01-27T13:03:30.425Z,69.20
2018-01-27T13:05:58.767Z,77.63
2018-01-27T13:08:27.086Z,68.90
2018-01-27T13:10:58.340Z,71.53
2018-01-27T13:13:26.781Z,64.47
2018-01-27T13:15:55.122Z,63.17
2018-01-27T13:18:23.504Z,71.83
2018-01-27T13:20:51.916Z,71.77
2018-01-27T13:23:20.253Z,70.67
2018-01-27T13:25:48.569Z,60.13
2018-01-27T13:28:17.578Z,68.47
2018-01-27T13:30:45.934Z,64.60
2018-01-27T13:33:14.271Z,56.47
2018-01-27T13:35:43.573Z,71.27
2018-01-27T13:38:11.888Z,68.17
2018-01-27T13:40:41.458Z,65.73
2018-01-27T13:43:09.800Z,60.40
2018-01-27T13:45:38.779Z,53.90
2018-01-27T13:48:07.193Z,57.33
2018-01-27T13:50:35.554Z,54.63
2018-01-27T13:53:04.219Z,48.33
2018-01-27T13:55:32.597Z,58.33
2018-01-27T13:58:00.907Z,51.93
2018-01-27T14:00:29.231Z,53.87
2018-01-27T14:02:57.748Z,71.67
2018-01-27T14:05:26.108Z,50.70
2018-01-27T14:07:55.532Z,51.30
2018-01-27T14:10:24.813Z,56.53
2018-01-27T14:12:53.219Z,49.37
2018-01-27T14:15:21.620Z,51.53
2018-01-27T14:17:50.909Z,53.83
2018-01-27T14:20:19.393Z,55.17
2018-01-27T14:22:47.805Z,53.83
2018-01-27T14:25:16.553Z,53.03
2018-01-27T14:27:44.883Z,42.50
2018-01-27T14:30:13.213Z,47.40
2018-01-27T14:32:41.568Z,50.50
2018-01-27T14:35:10.051Z,52.30
2018-01-27T14:37:38.439Z,39.97
2018-01-27T14:40:06.790Z,47.27
2018-01-27T14:42:35.145Z,49.67
2018-01-27T14:45:04.296Z,39.13
2018-01-27T14:47:32.631Z,40.60
2018-01-27T14:50:01.004Z,45.83
2018-01-27T14:52:29.475Z,36.60
2018-01-27T14:54:58.188Z,52.33
2018-01-27T14:57:27.255Z,45.83
2018-01-27T14:59:56.704Z,47.23
2018-01-27T15:02:25.034Z,45.27
2018-01-27T15:04:53.372Z,51.63
2018-01-27T15:07:21.714Z,44.20
2018-01-27T15:09:50.901Z,49.80
2018-01-27T15:12:19.598Z,56.17
2018-01-27T15:14:47.932Z,50.57
2018-01-27T15:17:16.292Z,73.30
2018-01-27T15:19:44.758Z,57.73
2018-01-27T15:22:13.754Z,55.07
2018-01-27T15:24:42.360Z,63.43
2018-01-27T15:27:10.696Z,49.47
2018-01-27T15:29:39.068Z,51.53
2018-01-27T15:32:07.780Z,53.50
2018-01-27T15:34:36.199Z,55.10
2018-01-27T15:37:04.585Z,62.93
2018-01-27T15:39:33.491Z,63.33
2018-01-27T15:42:01.828Z,72.00
2018-01-27T15:44:32.161Z,64.13
2018-01-27T15:47:02.606Z,67.00
2018-01-27T15:49:30.988Z,55.30
2018-01-27T15:51:59.361Z,57.43
2018-01-27T15:54:28.960Z,72.47
2018-01-27T15:57:00.591Z,66.90
2018-01-27T15:59:29.263Z,63.40
2018-01-27T16:01:57.701Z,57.67
2018-01-27T16:04:26.489Z,61.70
2018-01-27T16:06:54.861Z,59.70
2018-01-27T16:09:23.956Z,71.67
2018-01-27T16:11:52.533Z,70.87
2018-01-27T16:14:20.928Z,79.50
2018-01-27T16:16:51.555Z,75.50
2018-01-27T16:19:20.100Z,79.03
2018-01-27T16:21:50.163Z,82.77
2018-01-27T16:24:22.616Z,92.47
2018-01-27T16:26:51.276Z,85.17
2018-01-27T16:29:19.639Z,85.20
2018-01-27T16:31:48.287Z,75.90
2018-01-27T16:34:16.658Z,85.90
2018-01-27T16:36:47.082Z,85.27
2018-01-27T16:39:15.591Z,88.23
2018-01-27T16:44:17.134Z,87.53
2018-01-27T16:46:45.967Z,94.90
2018-01-27T16:49:14.297Z,96.33
2018-01-27T16:51:42.652Z,95.63
2018-01-27T16:54:11.011Z,87.40
2018-01-27T16:56:39.436Z,86.07
2018-01-27T16:59:07.753Z,94.57
2018-01-27T17:01:36.081Z,101.87
2018-01-27T17:04:04.410Z,100.70
2018-01-27T17:06:32.809Z,85.80
2018-01-27T17:09:01.646Z,89.87
2018-01-27T17:11:30.013Z,109.13
2018-01-27T17:13:59.125Z,102.27
2018-01-27T17:16:28.644Z,97.57
2018-01-27T17:18:57.020Z,122.83
2018-01-27T17:21:25.413Z,123.47
2018-01-27T17:23:53.945Z,115.33
2018-01-27T17:26:23.304Z,111.07
2018-01-27T17:28:51.721Z,92.67
2018-01-27T17:31:20.087Z,106.70
2018-01-27T17:33:48.508Z,108.23
2018-01-27T17:36:16.822Z,95.70
2018-01-27T17:38:45.232Z,108.00
2018-01-27T17:41:13.563Z,90.23
2018-01-27T17:43:41.933Z,100.07
2018-01-27T17:46:10.361Z,105.83
2018-01-27T17:48:42.303Z,128.80
2018-01-27T17:51:10.668Z,105.47
2018-01-27T17:53:38.992Z,95.03
2018-01-27T17:56:07.428Z,115.73
2018-01-27T17:58:35.940Z,111.17
2018-01-27T18:01:04.292Z,106.50
2018-01-27T18:03:32.653Z,106.67
2018-01-27T18:06:00.982Z,108.47
2018-01-27T18:08:29.317Z,106.60
2018-01-27T18:10:57.658Z,98.47
2018-01-27T18:13:26.016Z,99.17
2018-01-27T18:15:54.340Z,105.93
2018-01-27T18:18:22.715Z,102.37
2018-01-27T18:20:51.112Z,111.40
2018-01-27T18:23:19.469Z,99.93
2018-01-27T18:25:47.810Z,111.33
2018-01-27T18:28:16.534Z,96.13
2018-01-27T18:30:44.957Z,102.40
2018-01-27T18:33:13.426Z,97.73
2018-01-27T18:35:41.782Z,103.40
2018-01-27T18:38:12.153Z,94.03
2018-01-27T18:40:40.477Z,89.33
2018-01-27T18:43:08.881Z,98.63
2018-01-27T18:45:37.270Z,96.27
2018-01-27T18:48:05.581Z,103.20
2018-01-27T18:50:33.923Z,94.03
2018-01-27T18:53:02.263Z,93.43
2018-01-27T18:55:30.600Z,95.67
2018-01-27T18:57:58.926Z,77.63
2018-01-27T19:00:27.408Z,90.10
2018-01-27T19:02:55.760Z,88.93
2018-01-27T19:05:24.137Z,91.80
2018-01-27T19:07:52.477Z,75.73
2018-01-27T19:10:20.823Z,105.13
2018-01-27T19:12:49.178Z,78.53
2018-01-27T19:15:17.569Z,94.30
2018-01-27T19:17:45.879Z,90.97
2018-01-27T19:20:14.219Z,82.73
2018-01-27T19:22:42.537Z,83.83
2018-01-27T19:25:10.870Z,86.37
2018-01-27T19:27:39.205Z,87.07
2018-01-27T19:30:07.523Z,96.17
2018-01-27T19:32:35.863Z,89.23
2018-01-27T19:35:04.207Z,78.57
2018-01-27T19:37:32.519Z,91.37
2018-01-27T19:40:00.986Z,90.90
2018-01-27T19:42:29.303Z,100.37
2018-01-27T19:44:57.643Z,101.17
2018-01-27T19:47:25.972Z,83.97
2018-01-27T19:49:54.306Z,77.80
2018-01-27T19:52:22.632Z,84.23
2018-01-27T19:54:51.525Z,86.03
2018-01-27T19:57:19.943Z,77.90
2018-01-27T19:59:48.275Z,75.77
2018-01-27T20:02:16.601Z,85.17
2018-01-27T20:04:45.082Z,81.83
2018-01-27T20:07:15.175Z,66.47
2018-01-27T20:09:44.367Z,65.10
2018-01-27T20:12:13.345Z,78.97
2018-01-27T20:14:41.695Z,84.23
2018-01-27T20:17:10.034Z,66.07
2018-01-27T20:19:38.549Z,83.37
2018-01-27T20:22:07.084Z,76.23
2018-01-27T20:24:35.436Z,69.70
2018-01-27T20:27:03.768Z,64.47
2018-01-27T20:29:33.213Z,66.47
2018-01-27T20:32:01.535Z,110.70
2018-01-27T20:34:29.843Z,151.67
2018-01-27T20:36:58.162Z,148.73
2018-01-27T20:39:26.599Z,242.83
2018-01-27T20:41:54.932Z,135.10
2018-01-27T20:44:23.275Z,211.37
2018-01-27T20:46:51.619Z,307.67
2018-01-27T20:49:21.665Z,69.77
2018-01-27T20:51:56.710Z,64.07
2018-01-27T20:54:25.080Z,69.03
2018-01-27T20:56:53.426Z,66.60
2018-01-27T20:59:21.746Z,63.33
2018-01-27T21:01:50.075Z,61.07
2018-01-27T21:04:18.606Z,65.80
2018-01-27T21:06:47.365Z,66.03
2018-01-27T21:09:19.657Z,71.83
2018-01-27T21:11:48.080Z,72.77
2018-01-27T21:14:16.572Z,63.57
2018-01-27T21:16:45.005Z,65.53
2018-01-27T21:19:13.322Z,68.67
2018-01-27T21:21:41.844Z,58.23
2018-01-27T21:24:10.193Z,59.03
2018-01-27T21:26:38.548Z,73.23
2018-01-27T21:29:07.195Z,64.73
2018-01-27T21:36:40.422Z,67.40
2018-01-27T21:39:09.088Z,66.50
2018-01-27T21:41:37.470Z,66.43
2018-01-27T21:44:05.803Z,71.43
2018-01-27T21:46:34.137Z,60.10
2018-01-27T21:49:03.189Z,62.40
2018-01-27T21:51:31.486Z,73.93
2018-01-27T21:53:59.875Z,71.13
2018-01-27T21:56:28.207Z,58.30
2018-01-27T21:58:56.549Z,68.37
2018-01-27T22:01:24.922Z,77.30
2018-01-27T22:03:53.261Z,71.67
2018-01-27T22:06:21.600Z,62.10
2018-01-27T22:08:49.934Z,66.23
2018-01-27T22:11:18.270Z,66.70
2018-01-27T22:13:46.611Z,73.67
2018-01-27T22:16:14.943Z,68.40
2018-01-27T22:18:43.304Z,64.20
2018-01-27T22:21:11.643Z,70.70
2018-01-27T22:23:40.069Z,80.97
2018-01-27T22:26:08.400Z,78.40
2018-01-27T22:28:36.796Z,73.93
2018-01-27T22:31:05.169Z,72.77
2018-01-27T22:33:33.475Z,63.40
2018-01-27T22:36:01.833Z,84.00
2018-01-27T22:38:30.191Z,76.97
2018-01-27T22:40:58.502Z,82.37
2018-01-27T22:43:26.842Z,67.50
2018-01-27T22:45:55.162Z,81.00
2018-01-27T22:48:23.509Z,68.07
2018-01-27T22:50:51.820Z,84.57
2018-01-27T22:53:20.158Z,81.90
2018-01-27T22:55:48.527Z,75.47
2018-01-27T22:58:16.853Z,80.87
2018-01-27T23:03:49.552Z,95.10
2018-01-27T23:06:18.781Z,92.17
2018-01-27T23:08:47.411Z,80.07
2018-01-27T23:11:16.081Z,80.53
2018-01-27T23:13:44.506Z,79.00
2018-01-27T23:16:12.892Z,77.30
2018-01-27T23:18:41.222Z,84.53
2018-01-27T23:21:09.582Z,85.17
2018-01-27T23:23:38.326Z,84.07
2018-01-27T23:26:06.648Z,69.00
2018-01-27T23:28:34.976Z,73.70
2018-01-27T23:31:03.302Z,76.83
2018-01-27T23:33:31.626Z,74.70
2018-01-27T23:35:59.961Z,73.87
2018-01-27T23:38:28.459Z,79.33
2018-01-27T23:40:56.813Z,85.80
2018-01-27T23:43:25.136Z,68.87
2018-01-27T23:45:53.468Z,75.90
2018-01-27T23:48:21.792Z,77.20
2018-01-27T23:50:50.137Z,76.63
2018-01-27T23:53:18.467Z,73.20
2018-01-27T23:55:46.841Z,73.90
2018-01-27T23:58:15.160Z,76.67
